Airfield :
LOGIN :

Register | Disclaimer

   EN    FR    IT 

 










Legend :    VFR   Marginal VFR   IFR   Intensive IFR   Very Intensive IFR
Visi :
Ceiling :
>= 8 km
>= 3000ft
5 to 8 km
1000 to 3000 ft
1500m to 5 km
500 to 1000 ft
800 to 1500m
200 to 500 ft
< 800m
< 200 ft
Symbols :   Thunderstorms  Fog  Heavy snow  Heavy precipitations  Wind > 20 kt
SIGMETs :     Misc.  Thunderstorms  Icing  Turbulence  Mountain Waves  Volcanic Ashes







- Airport Elevation : 598 ft
- IATA code : BQH
- Download approach charts


EGKB - Biggin Hill

CURRENT METAR :
  • 190650Z 13004KT 100V160 3000 -RA BR SCT005 15/15 Q1006

EXPIRED METARs :
  • 190620Z VRB03KT 1800 R21/P0800 BR BKN004 14/14 Q1006
  • 190550Z 13005KT 1200 R21/P0800 BR BKN001 14/14 Q1007
  • 190520Z 13006KT 1200 R21/P0800 FG OVC001 14/14 Q1007

TAF TAF EGKB
Valid from the 19 at 06:00 until the 19 at 15:00 UTC


190604Z 1906/1915 05005KT 0500 FG BKN001
BECMG 1906/1909 7000 NSW SCT014
BECMG 1909/1912 9999 SCT025
TEMPO 1912/1915 6000 -RADZ BKN012
No reported NOTAMs for that airfield.



MET'MAP, your aeronautical weather chart ! - Copyright ORBIFLY December 2007 - Disclaimer

ORBIFLY MET'MAP TEAM :

Programming & Development : Alexandra Zaïnal
Concept & Development : Baudouin d'Aumeries
Co-Development & Prog : Marc-Olivier Méhu
Technical & hardware support : Manuel Goepfert

Contact : metmap@orbifly.com




SOURCES & CREDITS :

   NOAA